Wednesday, November 22, 2017, 8:02 AM EST
Back to Local

KHUL, Houlton Int'l Airport

Location: Houlton, ME, United States Lat: 46.117
Local Time: 8:02 AM EST (13:02 GMT) Lon: -67.8
Time Zone: US/Eastern Elev: 492 ft

Show me the last for .
Show Decoded

2017-11-22 06:53 METAR KHUL 221153Z AUTO 00000KT 5SM BR CLR M01/M02 A2996 RMK AO2 SLP152
                 T10111017 10039 21017 53009 =
2017-11-22 05:53 METAR KHUL 221053Z AUTO 00000KT 10SM CLR 02/01 A2994 RMK AO2 SLP143 T00220011 =
2017-11-22 04:53 METAR KHUL 220953Z AUTO 18004KT 10SM CLR 03/02 A2994 RMK AO2 SLP146 T00280017 =
2017-11-22 03:53 METAR KHUL 220853Z AUTO 17004KT 10SM CLR 03/02 A2993 RMK AO2 SLP141 T00330022
                 51005 =
2017-11-22 02:53 METAR KHUL 220753Z AUTO 18004KT 10SM CLR 03/02 A2993 RMK AO2 SLP141 T00330017 =
2017-11-22 01:53 METAR KHUL 220653Z AUTO 20004KT 10SM CLR 04/02 A2993 RMK AO2 SLP141 T00390022 =
2017-11-22 00:53 METAR KHUL 220553Z AUTO 20005KT 10SM CLR 04/02 A2992 RMK AO2 SLP136 T00390022
                 10050 20022 50003 =
2017-11-21 23:53 METAR KHUL 220453Z AUTO 19006KT 10SM CLR 04/02 A2992 RMK AO2 SLP138 T00440022
                 400501117 =
2017-11-21 22:53 METAR KHUL 220353Z AUTO 19004KT 10SM CLR 04/02 A2992 RMK AO2 SLP137 T00390022 =
2017-11-21 21:53 METAR KHUL 220253Z AUTO 18006KT 10SM CLR 04/02 A2991 RMK AO2 SLP134 T00440017
                 53005 =
2017-11-21 20:53 METAR KHUL 220153Z AUTO VRB04KT 10SM CLR 04/01 A2990 RMK AO2 SLP132 T00390006 =
2017-11-21 19:53 METAR KHUL 220053Z AUTO 18004KT 10SM CLR 03/00 A2989 RMK AO2 SLP131 T00330000 =
2017-11-21 18:53 METAR KHUL 212353Z AUTO 19005KT 10SM CLR 02/M01 A2989 RMK AO2 SLP130 T00221011
                 10033 20000 56003 =
2017-11-21 17:53 METAR KHUL 212253Z AUTO VRB05KT 10SM CLR 02/M02 A2989 RMK AO2 SLP132 T00171017 =
2017-11-21 16:53 METAR KHUL 212153Z AUTO 18004KT 10SM CLR 00/M03 A2990 RMK AO2 SLP132 T00001033 =
2017-11-21 15:53 METAR KHUL 212053Z AUTO 17004KT 10SM CLR 01/M04 A2990 RMK AO2 SLP134 T00111044
                 55009 =
2017-11-21 14:53 METAR KHUL 211953Z AUTO 15006KT 10SM CLR 02/M05 A2990 RMK AO2 SLP133 T00171050 =
2017-11-21 13:53 METAR KHUL 211853Z AUTO 17010G14KT 130V200 10SM CLR 03/M05 A2991 RMK AO2 SLP138
                 T00331050 =
2017-11-21 12:53 METAR KHUL 211753Z AUTO 19007KT 160V220 10SM CLR 02/M07 A2993 RMK AO2 SLP144
                 T00171067 10017 21111 56029 =
2017-11-21 11:53 METAR KHUL 211653Z AUTO VRB05KT 10SM CLR M01/M09 A2995 RMK AO2 SLP151 T10111089
                 =
2017-11-21 10:53 METAR KHUL 211553Z AUTO VRB06KT 10SM BKN040 M03/M11 A2999 RMK AO2 SLP164
                 T10281106 =
2017-11-21 09:53 METAR KHUL 211453Z AUTO 16007KT 10SM FEW041 M04/M12 A3002 RMK AO2 SLP174
                 T10441117 58005 =
2017-11-21 08:53 METAR KHUL 211353Z AUTO 00000KT 10SM CLR M06/M12 A3002 RMK AO2 SLP177 T10611122
                 =

Support USWX by starting your Amazon purchase here.